Kajang, Malaysia
Current Conditions -  °F | °C
As of 2:00 AM on Friday 24 Oct 2014 (Local Time) from WMSA Reporting Station
Broken Clouds Broken Clouds  
Wind Chill: 79°   Ceiling: 28000
Heat Index: 82°   Visibility: 5mi
Dew Point: 75°   Wind: 1mph
Humidity: 89%   Direction: 280°W
Pressure: 29.85"   Gusts: NA
Location:  3°N, 101.8°E
Report Text: WMSA 231800Z 28001KT 8000 SCT025 SCT140 BKN280 26/24 Q1011
Loading
Personal Weather Stations






























Interactive Weather Map
Tropical Storm Tracking
New forecast layout! Learn more

10-Day Weather Forecast

Advertisements
Track Severe Weather on mobile